sensor_id;sensor_type;location;lat;lon;timestamp;pressure;altitude;pressure_sealevel;temperature;humidity
32761;BME280;19126;47.472;7.850;2023-04-24T00:02:09;95782.91;;;10.62;99.38
32761;BME280;19126;47.472;7.850;2023-04-24T00:04:36;95779.06;;;10.65;97.81
32761;BME280;19126;47.472;7.850;2023-04-24T00:07:06;95772.03;;;10.72;96.23
32761;BME280;19126;47.472;7.850;2023-04-24T00:09:33;95775.09;;;10.76;96.05
32761;BME280;19126;47.472;7.850;2023-04-24T00:12:02;95782.56;;;10.79;95.61
32761;BME280;19126;47.472;7.850;2023-04-24T00:14:30;95785.44;;;10.84;94.53
32761;BME280;19126;47.472;7.850;2023-04-24T00:16:57;95785.59;;;10.76;94.13
32761;BME280;19126;47.472;7.850;2023-04-24T00:19:25;95784.38;;;10.72;95.08
32761;BME280;19126;47.472;7.850;2023-04-24T00:21:52;95791.25;;;10.73;94.46
32761;BME280;19126;47.472;7.850;2023-04-24T00:24:20;95777.69;;;10.69;95.99
32761;BME280;19126;47.472;7.850;2023-04-24T00:26:47;95778.47;;;10.63;100.00
32761;BME280;19126;47.472;7.850;2023-04-24T00:29:16;95783.53;;;10.64;98.11
32761;BME280;19126;47.472;7.850;2023-04-24T00:31:43;95770.53;;;10.56;99.72
32761;BME280;19126;47.472;7.850;2023-04-24T00:34:10;95770.31;;;10.51;99.62
32761;BME280;19126;47.472;7.850;2023-04-24T00:36:38;95772.38;;;10.55;99.13
32761;BME280;19126;47.472;7.850;2023-04-24T00:39:06;95774.44;;;10.67;97.81
32761;BME280;19126;47.472;7.850;2023-04-24T00:41:34;95775.84;;;10.63;95.47
32761;BME280;19126;47.472;7.850;2023-04-24T00:44:02;95760.81;;;10.50;98.05
32761;BME280;19126;47.472;7.850;2023-04-24T00:46:31;95772.94;;;10.51;100.00
32761;BME280;19126;47.472;7.850;2023-04-24T00:48:59;95770.31;;;10.51;100.00
32761;BME280;19126;47.472;7.850;2023-04-24T00:51:27;95772.53;;;10.47;100.00
32761;BME280;19126;47.472;7.850;2023-04-24T00:53:54;95773.97;;;10.57;100.00
32761;BME280;19126;47.472;7.850;2023-04-24T00:56:22;95775.44;;;10.66;100.00
32761;BME280;19126;47.472;7.850;2023-04-24T00:58:49;95771.59;;;10.62;100.00
32761;BME280;19126;47.472;7.850;2023-04-24T01:01:17;95773.16;;;10.56;99.13
32761;BME280;19126;47.472;7.850;2023-04-24T01:03:50;95766.69;;;10.52;100.00
32761;BME280;19126;47.472;7.850;2023-04-24T01:06:18;95770.41;;;10.64;100.00
32761;BME280;19126;47.472;7.850;2023-04-24T01:08:47;95762.44;;;10.51;99.03
32761;BME280;19126;47.472;7.850;2023-04-24T01:11:14;95768.91;;;10.48;98.25
32761;BME280;19126;47.472;7.850;2023-04-24T01:13:42;95773.97;;;10.57;97.12
32761;BME280;19126;47.472;7.850;2023-04-24T01:16:09;95775.44;;;10.66;97.55
32761;BME280;19126;47.472;7.850;2023-04-24T01:18:37;95772.63;;;10.67;95.82
32761;BME280;19126;47.472;7.850;2023-04-24T01:21:06;95776.50;;;10.72;95.31
32761;BME280;19126;47.472;7.850;2023-04-24T01:23:36;95772.41;;;10.62;95.97
32761;BME280;19126;47.472;7.850;2023-04-24T01:26:04;95771.63;;;10.68;94.64
32761;BME280;19126;47.472;7.850;2023-04-24T01:28:31;95771.00;;;10.66;94.65
32761;BME280;19126;47.472;7.850;2023-04-24T01:30:59;95765.94;;;10.65;95.27
32761;BME280;19126;47.472;7.850;2023-04-24T01:33:26;95758.94;;;10.79;94.45
32761;BME280;19126;47.472;7.850;2023-04-24T01:35:54;95761.34;;;10.74;94.65
32761;BME280;19126;47.472;7.850;2023-04-24T01:38:22;95758.31;;;10.77;93.88
32761;BME280;19126;47.472;7.850;2023-04-24T01:40:51;95765.19;;;10.78;95.69
32761;BME280;19126;47.472;7.850;2023-04-24T01:43:20;95756.25;;;10.65;96.53
32761;BME280;19126;47.472;7.850;2023-04-24T01:45:47;95759.03;;;10.57;98.16
32761;BME280;19126;47.472;7.850;2023-04-24T01:48:14;95764.06;;;10.52;100.00
32761;BME280;19126;47.472;7.850;2023-04-24T01:50:42;95755.16;;;10.46;100.00
32761;BME280;19126;47.472;7.850;2023-04-24T01:53:09;95759.16;;;10.42;100.00
32761;BME280;19126;47.472;7.850;2023-04-24T01:55:37;95766.22;;;10.41;100.00
32761;BME280;19126;47.472;7.850;2023-04-24T01:58:06;95764.97;;;10.37;100.00
32761;BME280;19126;47.472;7.850;2023-04-24T02:00:33;95772.81;;;10.31;100.00
32761;BME280;19126;47.472;7.850;2023-04-24T02:03:00;95771.56;;;10.26;100.00
32761;BME280;19126;47.472;7.850;2023-04-24T02:05:28;95770.75;;;10.26;100.00
32761;BME280;19126;47.472;7.850;2023-04-24T02:07:56;95773.75;;;10.23;100.00
32761;BME280;19126;47.472;7.850;2023-04-24T02:10:23;95763.31;;;10.30;100.00
32761;BME280;19126;47.472;7.850;2023-04-24T02:12:51;95772.75;;;10.24;100.00
32761;BME280;19126;47.472;7.850;2023-04-24T02:15:19;95776.22;;;10.24;100.00
32761;BME280;19126;47.472;7.850;2023-04-24T02:17:47;95767.56;;;10.31;100.00
32761;BME280;19126;47.472;7.850;2023-04-24T02:20:14;95775.00;;;10.27;100.00
32761;BME280;19126;47.472;7.850;2023-04-24T02:22:43;95778.47;;;10.34;100.00
32761;BME280;19126;47.472;7.850;2023-04-24T02:25:11;95770.84;;;10.39;100.00
32761;BME280;19126;47.472;7.850;2023-04-24T02:27:39;95776.53;;;10.43;100.00
32761;BME280;19126;47.472;7.850;2023-04-24T02:30:08;95786.22;;;10.43;100.00
32761;BME280;19126;47.472;7.850;2023-04-24T02:32:37;95782.94;;;10.34;100.00
32761;BME280;19126;47.472;7.850;2023-04-24T02:35:06;95788.34;;;10.25;100.00
32761;BME280;19126;47.472;7.850;2023-04-24T02:37:33;95779.69;;;10.32;100.00
32761;BME280;19126;47.472;7.850;2023-04-24T02:40:00;95774.19;;;10.26;100.00
32761;BME280;19126;47.472;7.850;2023-04-24T02:42:29;95776.38;;;10.16;100.00
32761;BME280;19126;47.472;7.850;2023-04-24T02:44:56;95777.78;;;10.19;100.00
32761;BME280;19126;47.472;7.850;2023-04-24T02:47:23;95774.97;;;10.20;100.00
32761;BME280;19126;47.472;7.850;2023-04-24T02:49:52;95768.28;;;10.18;100.00
32761;BME280;19126;47.472;7.850;2023-04-24T02:52:19;95778.16;;;10.16;100.00
32761;BME280;19126;47.472;7.850;2023-04-24T02:54:46;95777.31;;;10.08;100.00
32761;BME280;19126;47.472;7.850;2023-04-24T02:57:14;95785.94;;;10.02;100.00
32761;BME280;19126;47.472;7.850;2023-04-24T02:59:41;95780.66;;;9.95;100.00
32761;BME280;19126;47.472;7.850;2023-04-24T03:02:08;95783.69;;;9.92;100.00
32761;BME280;19126;47.472;7.850;2023-04-24T03:04:36;95775.94;;;9.84;100.00
32761;BME280;19126;47.472;7.850;2023-04-24T03:07:04;95781.81;;;9.86;100.00
32761;BME280;19126;47.472;7.850;2023-04-24T03:09:32;95774.34;;;9.90;100.00
32761;BME280;19126;47.472;7.850;2023-04-24T03:11:59;95782.38;;;9.81;100.00
32761;BME280;19126;47.472;7.850;2023-04-24T03:14:27;95771.50;;;9.85;100.00
32761;BME280;19126;47.472;7.850;2023-04-24T03:16:57;95766.84;;;9.80;100.00
32761;BME280;19126;47.472;7.850;2023-04-24T03:19:24;95778.13;;;9.80;100.00
32761;BME280;19126;47.472;7.850;2023-04-24T03:21:51;95762.59;;;9.79;100.00
32761;BME280;19126;47.472;7.850;2023-04-24T03:24:20;95764.38;;;9.78;100.00
32761;BME280;19126;47.472;7.850;2023-04-24T03:26:48;95763.63;;;9.85;100.00
32761;BME280;19126;47.472;7.850;2023-04-24T03:29:15;95759.53;;;9.75;100.00
32761;BME280;19126;47.472;7.850;2023-04-24T03:31:43;95758.91;;;9.73;100.00
32761;BME280;19126;47.472;7.850;2023-04-24T03:34:10;95769.63;;;9.78;100.00
32761;BME280;19126;47.472;7.850;2023-04-24T03:36:37;95789.97;;;9.70;100.00
32761;BME280;19126;47.472;7.850;2023-04-24T03:39:04;95806.69;;;9.68;100.00
32761;BME280;19126;47.472;7.850;2023-04-24T03:41:33;95830.28;;;9.68;100.00
32761;BME280;19126;47.472;7.850;2023-04-24T03:44:01;95841.31;;;9.64;100.00
32761;BME280;19126;47.472;7.850;2023-04-24T03:46:28;95834.22;;;9.58;100.00
32761;BME280;19126;47.472;7.850;2023-04-24T03:48:55;95845.03;;;9.48;100.00
32761;BME280;19126;47.472;7.850;2023-04-24T03:51:23;95854.28;;;9.29;100.00
32761;BME280;19126;47.472;7.850;2023-04-24T03:53:51;95859.00;;;9.18;100.00
32761;BME280;19126;47.472;7.850;2023-04-24T03:56:18;95861.28;;;9.06;100.00
32761;BME280;19126;47.472;7.850;2023-04-24T03:58:47;95855.34;;;8.98;100.00
32761;BME280;19126;47.472;7.850;2023-04-24T04:01:14;95860.06;;;8.87;100.00
32761;BME280;19126;47.472;7.850;2023-04-24T04:03:42;95855.38;;;8.68;100.00
32761;BME280;19126;47.472;7.850;2023-04-24T04:06:09;95859.72;;;8.60;100.00
32761;BME280;19126;47.472;7.850;2023-04-24T04:08:38;95854.56;;;8.52;100.00
32761;BME280;19126;47.472;7.850;2023-04-24T04:11:06;95861.13;;;8.48;100.00
32761;BME280;19126;47.472;7.850;2023-04-24T04:13:33;95863.81;;;8.40;100.00
32761;BME280;19126;47.472;7.850;2023-04-24T04:16:02;95861.00;;;8.41;100.00
32761;BME280;19126;47.472;7.850;2023-04-24T04:18:29;95869.22;;;8.38;100.00
32761;BME280;19126;47.472;7.850;2023-04-24T04:20:56;95874.03;;;8.49;100.00
32761;BME280;19126;47.472;7.850;2023-04-24T04:23:24;95869.69;;;8.42;100.00
32761;BME280;19126;47.472;7.850;2023-04-24T04:25:52;95878.06;;;8.37;100.00
32761;BME280;19126;47.472;7.850;2023-04-24T04:28:20;95877.25;;;8.36;100.00
32761;BME280;19126;47.472;7.850;2023-04-24T04:30:48;95874.38;;;8.31;100.00
32761;BME280;19126;47.472;7.850;2023-04-24T04:33:16;95879.47;;;8.25;100.00
32761;BME280;19126;47.472;7.850;2023-04-24T04:35:44;95874.88;;;8.27;100.00
32761;BME280;19126;47.472;7.850;2023-04-24T04:38:14;95883.63;;;8.19;100.00
32761;BME280;19126;47.472;7.850;2023-04-24T04:40:42;95884.56;;;8.26;100.00
32761;BME280;19126;47.472;7.850;2023-04-24T04:43:10;95881.38;;;8.16;100.00
32761;BME280;19126;47.472;7.850;2023-04-24T04:45:39;95892.63;;;8.16;100.00
32761;BME280;19126;47.472;7.850;2023-04-24T04:48:07;95879.41;;;8.18;100.00
32761;BME280;19126;47.472;7.850;2023-04-24T04:50:36;95888.38;;;8.00;100.00
32761;BME280;19126;47.472;7.850;2023-04-24T04:53:03;95894.53;;;8.07;100.00
32761;BME280;19126;47.472;7.850;2023-04-24T04:55:31;95897.66;;;8.03;100.00
32761;BME280;19126;47.472;7.850;2023-04-24T04:57:58;95902.44;;;7.99;100.00
32761;BME280;19126;47.472;7.850;2023-04-24T05:00:26;95903.59;;;7.97;100.00
32761;BME280;19126;47.472;7.850;2023-04-24T05:02:54;95908.88;;;8.12;100.00
32761;BME280;19126;47.472;7.850;2023-04-24T05:05:22;95905.72;;;8.16;100.00
32761;BME280;19126;47.472;7.850;2023-04-24T05:07:50;95920.22;;;8.04;100.00
32761;BME280;19126;47.472;7.850;2023-04-24T05:10:18;95917.88;;;8.09;100.00
32761;BME280;19126;47.472;7.850;2023-04-24T05:12:45;95924.72;;;8.10;100.00
32761;BME280;19126;47.472;7.850;2023-04-24T05:15:12;95925.00;;;8.00;100.00
32761;BME280;19126;47.472;7.850;2023-04-24T05:17:39;95923.59;;;8.13;100.00
32761;BME280;19126;47.472;7.850;2023-04-24T05:20:07;95942.34;;;8.16;100.00
32761;BME280;19126;47.472;7.850;2023-04-24T05:22:35;95934.84;;;8.13;100.00
32761;BME280;19126;47.472;7.850;2023-04-24T05:25:04;95935.53;;;8.07;100.00
32761;BME280;19126;47.472;7.850;2023-04-24T05:27:32;95932.22;;;8.13;100.00
32761;BME280;19126;47.472;7.850;2023-04-24T05:29:59;95939.28;;;8.13;100.00
32761;BME280;19126;47.472;7.850;2023-04-24T05:32:27;95949.91;;;8.11;100.00
32761;BME280;19126;47.472;7.850;2023-04-24T05:34:54;95942.88;;;8.12;100.00
32761;BME280;19126;47.472;7.850;2023-04-24T05:37:22;95947.00;;;8.06;100.00
32761;BME280;19126;47.472;7.850;2023-04-24T05:39:51;95958.75;;;8.10;100.00
32761;BME280;19126;47.472;7.850;2023-04-24T05:42:20;95956.97;;;8.11;100.00
32761;BME280;19126;47.472;7.850;2023-04-24T05:44:47;95961.50;;;8.17;100.00
32761;BME280;19126;47.472;7.850;2023-04-24T05:47:15;95967.34;;;8.19;100.00
32761;BME280;19126;47.472;7.850;2023-04-24T05:49:42;95969.56;;;8.30;100.00
32761;BME280;19126;47.472;7.850;2023-04-24T05:52:09;95969.13;;;8.42;100.00
32761;BME280;19126;47.472;7.850;2023-04-24T05:54:36;95955.13;;;8.34;100.00
32761;BME280;19126;47.472;7.850;2023-04-24T05:57:04;95968.16;;;8.43;100.00
32761;BME280;19126;47.472;7.850;2023-04-24T05:59:36;95976.94;;;8.50;100.00
32761;BME280;19126;47.472;7.850;2023-04-24T06:02:04;95978.44;;;8.68;100.00
32761;BME280;19126;47.472;7.850;2023-04-24T06:04:32;95971.28;;;8.76;100.00
32761;BME280;19126;47.472;7.850;2023-04-24T06:07:00;95985.50;;;8.82;100.00
32761;BME280;19126;47.472;7.850;2023-04-24T06:09:27;95981.72;;;9.00;100.00
32761;BME280;19126;47.472;7.850;2023-04-24T06:11:54;95991.63;;;9.04;100.00
32761;BME280;19126;47.472;7.850;2023-04-24T06:14:22;95987.03;;;9.06;100.00
32761;BME280;19126;47.472;7.850;2023-04-24T06:16:51;95984.34;;;9.00;100.00
32761;BME280;19126;47.472;7.850;2023-04-24T06:19:18;95982.72;;;8.99;100.00
32761;BME280;19126;47.472;7.850;2023-04-24T06:21:45;95983.25;;;9.09;100.00
32761;BME280;19126;47.472;7.850;2023-04-24T06:24:15;95976.38;;;9.53;100.00
32761;BME280;19126;47.472;7.850;2023-04-24T06:26:42;95974.81;;;9.95;100.00
32761;BME280;19126;47.472;7.850;2023-04-24T06:29:10;95976.06;;;10.21;100.00
32761;BME280;19126;47.472;7.850;2023-04-24T06:31:37;95973.13;;;10.53;100.00
32761;BME280;19126;47.472;7.850;2023-04-24T06:34:06;95972.06;;;11.04;100.00
32761;BME280;19126;47.472;7.850;2023-04-24T06:36:33;95984.19;;;11.34;100.00
32761;BME280;19126;47.472;7.850;2023-04-24T06:39:01;95981.69;;;11.61;100.00
32761;BME280;19126;47.472;7.850;2023-04-24T06:41:29;95982.56;;;11.88;100.00
32761;BME280;19126;47.472;7.850;2023-04-24T06:43:56;95989.56;;;12.23;100.00
32761;BME280;19126;47.472;7.850;2023-04-24T06:46:23;95989.63;;;12.56;100.00
32761;BME280;19126;47.472;7.850;2023-04-24T06:48:52;95996.09;;;12.47;100.00
32761;BME280;19126;47.472;7.850;2023-04-24T06:51:23;96000.06;;;12.09;95.90
32761;BME280;19126;47.472;7.850;2023-04-24T06:53:51;96009.00;;;11.66;97.83
32761;BME280;19126;47.472;7.850;2023-04-24T06:56:19;96024.72;;;11.18;99.30
32761;BME280;19126;47.472;7.850;2023-04-24T06:58:47;96032.41;;;10.84;100.00
32761;BME280;19126;47.472;7.850;2023-04-24T07:01:14;96049.06;;;10.33;100.00
32761;BME280;19126;47.472;7.850;2023-04-24T07:03:41;96058.03;;;10.02;100.00
32761;BME280;19126;47.472;7.850;2023-04-24T07:06:09;96063.97;;;9.74;100.00
32761;BME280;19126;47.472;7.850;2023-04-24T07:08:39;96066.31;;;9.53;100.00
32761;BME280;19126;47.472;7.850;2023-04-24T07:11:08;96067.56;;;9.28;100.00
32761;BME280;19126;47.472;7.850;2023-04-24T07:13:35;96073.34;;;9.08;100.00
32761;BME280;19126;47.472;7.850;2023-04-24T07:16:07;96075.75;;;8.94;100.00
32761;BME280;19126;47.472;7.850;2023-04-24T07:18:36;96087.00;;;8.80;100.00
32761;BME280;19126;47.472;7.850;2023-04-24T07:21:06;96084.66;;;8.62;100.00
32761;BME280;19126;47.472;7.850;2023-04-24T07:23:33;96087.38;;;8.45;100.00
32761;BME280;19126;47.472;7.850;2023-04-24T07:26:03;96078.38;;;8.48;100.00
32761;BME280;19126;47.472;7.850;2023-04-24T07:28:30;96087.06;;;8.40;100.00
32761;BME280;19126;47.472;7.850;2023-04-24T07:30:58;96088.31;;;8.29;100.00
32761;BME280;19126;47.472;7.850;2023-04-24T07:33:26;96089.19;;;8.13;100.00
32761;BME280;19126;47.472;7.850;2023-04-24T07:35:55;96088.78;;;8.01;100.00
32761;BME280;19126;47.472;7.850;2023-04-24T07:38:25;96084.25;;;7.95;100.00
32761;BME280;19126;47.472;7.850;2023-04-24T07:40:52;96085.72;;;7.89;100.00
32761;BME280;19126;47.472;7.850;2023-04-24T07:43:22;96111.78;;;8.06;100.00
32761;BME280;19126;47.472;7.850;2023-04-24T07:45:50;96102.69;;;8.57;100.00
32761;BME280;19126;47.472;7.850;2023-04-24T07:48:18;96104.41;;;8.73;100.00
32761;BME280;19126;47.472;7.850;2023-04-24T07:50:47;96115.88;;;8.72;100.00
32761;BME280;19126;47.472;7.850;2023-04-24T07:53:15;96122.03;;;8.79;100.00
32761;BME280;19126;47.472;7.850;2023-04-24T07:55:42;96121.13;;;8.87;100.00
32761;BME280;19126;47.472;7.850;2023-04-24T07:58:10;96113.63;;;8.84;100.00
32761;BME280;19126;47.472;7.850;2023-04-24T08:00:39;96111.94;;;8.91;100.00
32761;BME280;19126;47.472;7.850;2023-04-24T08:03:07;96118.28;;;8.97;100.00
32761;BME280;19126;47.472;7.850;2023-04-24T08:05:34;96113.34;;;9.02;100.00
32761;BME280;19126;47.472;7.850;2023-04-24T08:08:02;96125.09;;;9.06;100.00
32761;BME280;19126;47.472;7.850;2023-04-24T08:10:29;96127.28;;;9.17;100.00
32761;BME280;19126;47.472;7.850;2023-04-24T08:12:57;96131.63;;;9.25;100.00
32761;BME280;19126;47.472;7.850;2023-04-24T08:15:24;96130.25;;;9.82;100.00
32761;BME280;19126;47.472;7.850;2023-04-24T08:17:53;96145.00;;;9.99;100.00
32761;BME280;19126;47.472;7.850;2023-04-24T08:20:21;96138.28;;;9.96;100.00
32761;BME280;19126;47.472;7.850;2023-04-24T08:22:48;96139.00;;;9.90;98.61
32761;BME280;19126;47.472;7.850;2023-04-24T08:25:16;96140.00;;;9.89;98.61
32761;BME280;19126;47.472;7.850;2023-04-24T08:27:44;96139.09;;;9.81;97.26
32761;BME280;19126;47.472;7.850;2023-04-24T08:30:13;96145.63;;;9.86;97.77
32761;BME280;19126;47.472;7.850;2023-04-24T08:32:40;96146.97;;;9.81;99.46
32761;BME280;19126;47.472;7.850;2023-04-24T08:35:10;96140.00;;;9.89;99.83
32761;BME280;19126;47.472;7.850;2023-04-24T08:37:38;96151.94;;;10.21;100.00
32761;BME280;19126;47.472;7.850;2023-04-24T08:40:11;96137.34;;;10.34;98.57
32761;BME280;19126;47.472;7.850;2023-04-24T08:42:41;96155.25;;;10.60;100.00
32761;BME280;19126;47.472;7.850;2023-04-24T08:45:11;96156.13;;;10.67;94.76
32761;BME280;19126;47.472;7.850;2023-04-24T08:47:40;96155.06;;;10.83;96.64
32761;BME280;19126;47.472;7.850;2023-04-24T08:50:11;96156.78;;;11.20;96.63
32761;BME280;19126;47.472;7.850;2023-04-24T08:52:39;96158.91;;;11.31;92.90
32761;BME280;19126;47.472;7.850;2023-04-24T08:55:07;96160.81;;;11.16;86.62
32761;BME280;19126;47.472;7.850;2023-04-24T08:57:36;96160.31;;;11.05;87.92
32761;BME280;19126;47.472;7.850;2023-04-24T09:00:07;96170.94;;;10.97;88.39
32761;BME280;19126;47.472;7.850;2023-04-24T09:02:35;96170.78;;;10.98;92.79
32761;BME280;19126;47.472;7.850;2023-04-24T09:05:04;96165.28;;;10.93;89.54
32761;BME280;19126;47.472;7.850;2023-04-24T09:07:35;96160.41;;;10.90;89.39
32761;BME280;19126;47.472;7.850;2023-04-24T09:10:03;96165.69;;;10.97;90.10
32761;BME280;19126;47.472;7.850;2023-04-24T09:12:31;96167.56;;;11.03;89.88
32761;BME280;19126;47.472;7.850;2023-04-24T09:14:59;96166.19;;;11.07;88.16
32761;BME280;19126;47.472;7.850;2023-04-24T09:17:27;96172.91;;;11.10;90.48
32761;BME280;19126;47.472;7.850;2023-04-24T09:19:55;96173.94;;;11.16;84.97
32761;BME280;19126;47.472;7.850;2023-04-24T09:22:23;96168.56;;;11.02;83.89
32761;BME280;19126;47.472;7.850;2023-04-24T09:25:05;96171.03;;;11.04;83.61
32761;BME280;19126;47.472;7.850;2023-04-24T09:27:35;96173.03;;;11.02;84.25
32761;BME280;19126;47.472;7.850;2023-04-24T09:30:06;96168.19;;;11.05;85.61
32761;BME280;19126;47.472;7.850;2023-04-24T09:32:34;96178.84;;;10.97;82.27
32761;BME280;19126;47.472;7.850;2023-04-24T09:35:10;96177.03;;;10.97;81.76
32761;BME280;19126;47.472;7.850;2023-04-24T09:37:40;96168.78;;;11.22;83.03
32761;BME280;19126;47.472;7.850;2023-04-24T09:40:23;96170.91;;;11.97;86.81
32761;BME280;19126;47.472;7.850;2023-04-24T09:42:53;96169.19;;;12.11;77.84
32761;BME280;19126;47.472;7.850;2023-04-24T09:45:21;96167.63;;;12.93;84.29
32761;BME280;19126;47.472;7.850;2023-04-24T09:47:52;96157.13;;;13.40;78.25
32761;BME280;19126;47.472;7.850;2023-04-24T09:50:20;96177.66;;;13.51;72.25
32761;BME280;19126;47.472;7.850;2023-04-24T09:52:58;96166.47;;;13.36;71.75
32761;BME280;19126;47.472;7.850;2023-04-24T09:55:27;96180.84;;;13.06;69.55
32761;BME280;19126;47.472;7.850;2023-04-24T09:57:57;96180.16;;;12.70;70.38
32761;BME280;19126;47.472;7.850;2023-04-24T10:00:28;96171.47;;;12.28;69.03
32761;BME280;19126;47.472;7.850;2023-04-24T10:03:00;96181.25;;;11.99;70.64
32761;BME280;19126;47.472;7.850;2023-04-24T10:05:29;96186.19;;;11.80;71.14
32761;BME280;19126;47.472;7.850;2023-04-24T10:08:01;96186.97;;;11.74;71.07
32761;BME280;19126;47.472;7.850;2023-04-24T10:10:30;96192.53;;;11.64;72.85
32761;BME280;19126;47.472;7.850;2023-04-24T10:12:59;96189.13;;;11.64;72.42
32761;BME280;19126;47.472;7.850;2023-04-24T10:15:26;96204.50;;;11.67;71.10
32761;BME280;19126;47.472;7.850;2023-04-24T10:17:54;96197.81;;;11.64;69.79
32761;BME280;19126;47.472;7.850;2023-04-24T10:20:23;96203.03;;;11.57;72.77
32761;BME280;19126;47.472;7.850;2023-04-24T10:22:52;96192.16;;;11.39;68.39
32761;BME280;19126;47.472;7.850;2023-04-24T10:25:21;96202.22;;;11.35;70.25
32761;BME280;19126;47.472;7.850;2023-04-24T10:27:51;96199.19;;;11.32;73.63
32761;BME280;19126;47.472;7.850;2023-04-24T10:30:20;96196.03;;;11.43;75.06
32761;BME280;19126;47.472;7.850;2023-04-24T10:32:47;96203.56;;;11.46;70.04
32761;BME280;19126;47.472;7.850;2023-04-24T10:35:15;96203.56;;;11.46;70.10
32761;BME280;19126;47.472;7.850;2023-04-24T10:37:50;96203.97;;;11.50;70.83
32761;BME280;19126;47.472;7.850;2023-04-24T10:40:19;96212.94;;;11.55;72.70
32761;BME280;19126;47.472;7.850;2023-04-24T10:42:54;96198.81;;;11.63;71.64
32761;BME280;19126;47.472;7.850;2023-04-24T10:45:23;96195.31;;;11.56;72.23
32761;BME280;19126;47.472;7.850;2023-04-24T10:47:58;96204.56;;;11.45;73.17
32761;BME280;19126;47.472;7.850;2023-04-24T10:50:28;96208.25;;;11.29;74.10
32761;BME280;19126;47.472;7.850;2023-04-24T10:53:06;96218.47;;;11.17;76.03
32761;BME280;19126;47.472;7.850;2023-04-24T10:55:43;96221.09;;;11.17;76.42
32761;BME280;19126;47.472;7.850;2023-04-24T10:58:12;96229.59;;;10.97;74.05
32761;BME280;19126;47.472;7.850;2023-04-24T11:00:41;96232.63;;;10.79;74.35
32761;BME280;19126;47.472;7.850;2023-04-24T11:03:26;96224.88;;;10.56;72.39
32761;BME280;19126;47.472;7.850;2023-04-24T11:05:58;96204.53;;;10.43;74.62
32761;BME280;19126;47.472;7.850;2023-04-24T11:08:29;96221.56;;;10.47;75.09
32761;BME280;19126;47.472;7.850;2023-04-24T11:11:07;96210.69;;;10.50;75.47
32761;BME280;19126;47.472;7.850;2023-04-24T11:14:05;96209.94;;;10.72;79.81
32761;BME280;19126;47.472;7.850;2023-04-24T11:16:37;96217.22;;;10.91;73.35
32761;BME280;19126;47.472;7.850;2023-04-24T11:19:07;96217.66;;;11.17;74.44
32761;BME280;19126;47.472;7.850;2023-04-24T11:21:47;96207.28;;;11.58;74.97
32761;BME280;19126;47.472;7.850;2023-04-24T11:24:30;96199.88;;;11.97;73.93
32761;BME280;19126;47.472;7.850;2023-04-24T11:27:04;96205.78;;;12.35;73.98
32761;BME280;19126;47.472;7.850;2023-04-24T11:29:43;96201.19;;;12.50;67.43
32761;BME280;19126;47.472;7.850;2023-04-24T11:32:26;96196.44;;;13.01;70.71
32761;BME280;19126;47.472;7.850;2023-04-24T11:34:56;96207.81;;;13.08;68.61
32761;BME280;19126;47.472;7.850;2023-04-24T11:37:26;96192.63;;;13.37;68.94
32761;BME280;19126;47.472;7.850;2023-04-24T11:39:55;96196.75;;;13.67;66.81
32761;BME280;19126;47.472;7.850;2023-04-24T11:42:23;96198.13;;;13.83;63.41
32761;BME280;19126;47.472;7.850;2023-04-24T11:44:55;96196.25;;;14.10;63.57
32761;BME280;19126;47.472;7.850;2023-04-24T11:47:29;96187.59;;;13.76;59.67
32761;BME280;19126;47.472;7.850;2023-04-24T11:49:57;96196.13;;;13.65;61.28
32761;BME280;19126;47.472;7.850;2023-04-24T11:52:25;96196.72;;;13.73;62.67
32761;BME280;19126;47.472;7.850;2023-04-24T11:54:53;96204.84;;;13.78;60.15
32761;BME280;19126;47.472;7.850;2023-04-24T11:57:21;96209.28;;;13.85;59.99
32761;BME280;19126;47.472;7.850;2023-04-24T11:59:49;96206.59;;;14.18;59.59
32761;BME280;19126;47.472;7.850;2023-04-24T12:02:25;96210.38;;;14.49;57.42
32761;BME280;19126;47.472;7.850;2023-04-24T12:04:53;96216.66;;;14.48;57.39
32761;BME280;19126;47.472;7.850;2023-04-24T12:07:25;96211.06;;;14.18;55.70
32761;BME280;19126;47.472;7.850;2023-04-24T12:09:57;96211.31;;;13.83;59.54
32761;BME280;19126;47.472;7.850;2023-04-24T12:12:26;96209.94;;;13.53;59.67
32761;BME280;19126;47.472;7.850;2023-04-24T12:14:55;96209.91;;;13.40;61.48
32761;BME280;19126;47.472;7.850;2023-04-24T12:17:28;96214.72;;;13.09;59.84
32761;BME280;19126;47.472;7.850;2023-04-24T12:20:02;96211.41;;;12.87;62.39
32761;BME280;19126;47.472;7.850;2023-04-24T12:22:44;96211.38;;;12.73;64.64
32761;BME280;19126;47.472;7.850;2023-04-24T12:25:13;96216.25;;;12.70;67.97
32761;BME280;19126;47.472;7.850;2023-04-24T12:27:41;96224.38;;;12.82;73.38
32761;BME280;19126;47.472;7.850;2023-04-24T12:30:13;96216.03;;;12.65;69.26
32761;BME280;19126;47.472;7.850;2023-04-24T12:32:45;96216.81;;;12.65;71.73
32761;BME280;19126;47.472;7.850;2023-04-24T12:35:13;96220.09;;;12.74;75.10
32761;BME280;19126;47.472;7.850;2023-04-24T12:37:43;96228.88;;;12.95;73.79
32761;BME280;19126;47.472;7.850;2023-04-24T12:40:12;96220.22;;;13.14;71.91
32761;BME280;19126;47.472;7.850;2023-04-24T12:42:44;96214.34;;;13.39;73.51
32761;BME280;19126;47.472;7.850;2023-04-24T12:45:13;96214.16;;;13.41;70.40
32761;BME280;19126;47.472;7.850;2023-04-24T12:47:43;96219.25;;;13.36;68.09
32761;BME280;19126;47.472;7.850;2023-04-24T12:50:13;96210.75;;;13.47;69.37
32761;BME280;19126;47.472;7.850;2023-04-24T12:52:42;96216.59;;;13.36;68.32
32761;BME280;19126;47.472;7.850;2023-04-24T12:55:10;96212.47;;;12.99;65.79
32761;BME280;19126;47.472;7.850;2023-04-24T12:57:40;96212.81;;;12.76;66.08
32761;BME280;19126;47.472;7.850;2023-04-24T13:00:09;96218.88;;;12.70;68.69
32761;BME280;19126;47.472;7.850;2023-04-24T13:02:37;96221.75;;;12.75;69.11
32761;BME280;19126;47.472;7.850;2023-04-24T13:05:08;96229.66;;;12.75;73.47
32761;BME280;19126;47.472;7.850;2023-04-24T13:07:37;96229.88;;;12.87;68.67